sensor_id;sensor_type;location;lat;lon;timestamp;pressure;altitude;pressure_sealevel;temperature;humidity
26915;BME280;14480;52.608;13.416;2023-02-10T07:13:09;140250.97;;;-15.38;100.00
26915;BME280;14480;52.608;13.416;2023-02-10T07:18:13;140259.56;;;-15.34;100.00
26915;BME280;14480;52.608;13.416;2023-02-10T07:23:16;140304.97;;;-15.15;100.00
26915;BME280;14480;52.608;13.416;2023-02-10T07:28:38;140328.25;;;-15.06;100.00
26915;BME280;14480;52.608;13.416;2023-02-10T07:33:41;140388.41;;;-14.81;100.00
26915;BME280;14480;52.608;13.416;2023-02-10T07:38:47;140416.66;;;-14.69;100.00
26915;BME280;14480;52.608;13.416;2023-02-10T07:43:53;140451.00;;;-14.55;100.00
26915;BME280;14480;52.608;13.416;2023-02-10T07:48:57;140462.03;;;-14.50;100.00
26915;BME280;14480;52.608;13.416;2023-02-10T07:54:03;140474.34;;;-14.45;100.00
26915;BME280;14480;52.608;13.416;2023-02-10T07:59:08;140512.34;;;-14.29;100.00
26915;BME280;14480;52.608;13.416;2023-02-10T08:04:12;140557.81;;;-14.10;100.00
26915;BME280;14480;52.608;13.416;2023-02-10T08:09:15;140615.53;;;-13.87;100.00
26915;BME280;14480;52.608;13.416;2023-02-10T08:14:20;140678.19;;;-13.61;100.00
26915;BME280;14480;52.608;13.416;2023-02-10T08:19:26;140729.81;;;-13.39;100.00
26915;BME280;14480;52.608;13.416;2023-02-10T08:24:34;140785.09;;;-13.16;100.00
26915;BME280;14480;52.608;13.416;2023-02-10T08:29:41;140808.44;;;-13.07;100.00
26915;BME280;14480;52.608;13.416;2023-02-10T08:34:45;140842.88;;;-12.92;100.00
26915;BME280;14480;52.608;13.416;2023-02-10T08:39:48;140904.34;;;-12.67;100.00
26915;BME280;14480;52.608;13.416;2023-02-10T08:44:53;140911.72;;;-12.64;100.00
26915;BME280;14480;52.608;13.416;2023-02-10T08:49:56;141000.28;;;-12.27;100.00
26915;BME280;14480;52.608;13.416;2023-02-10T08:55:00;141024.91;;;-12.17;100.00
26915;BME280;14480;52.608;13.416;2023-02-10T09:00:07;141022.44;;;-12.18;100.00
26915;BME280;14480;52.608;13.416;2023-02-10T09:05:11;141024.91;;;-12.17;100.00
26915;BME280;14480;52.608;13.416;2023-02-10T09:10:18;141112.28;;;-11.81;100.00
26915;BME280;14480;52.608;13.416;2023-02-10T09:15:23;141124.56;;;-11.76;100.00
26915;BME280;14480;52.608;13.416;2023-02-10T09:20:27;141128.25;;;-11.74;100.00
26915;BME280;14480;52.608;13.416;2023-02-10T09:25:30;141079.06;;;-11.95;100.00
26915;BME280;14480;52.608;13.416;2023-02-10T09:30:35;141102.44;;;-11.85;100.00
26915;BME280;14480;52.608;13.416;2023-02-10T09:35:38;141135.63;;;-11.71;100.00
26915;BME280;14480;52.608;13.416;2023-02-10T09:40:46;141138.09;;;-11.70;100.00
26915;BME280;14480;52.608;13.416;2023-02-10T09:45:56;141155.34;;;-11.63;100.00
26915;BME280;14480;52.608;13.416;2023-02-10T09:51:03;141200.91;;;-11.44;100.00
26915;BME280;14480;52.608;13.416;2023-02-10T09:56:12;141232.91;;;-11.31;100.00
26915;BME280;14480;52.608;13.416;2023-02-10T10:01:18;141258.78;;;-11.21;100.00
26915;BME280;14480;52.608;13.416;2023-02-10T10:06:26;141295.72;;;-11.05;100.00
26915;BME280;14480;52.608;13.416;2023-02-10T10:11:32;141322.84;;;-10.94;100.00
26915;BME280;14480;52.608;13.416;2023-02-10T10:16:45;141364.69;;;-10.77;100.00
26915;BME280;14480;52.608;13.416;2023-02-10T10:21:53;141346.25;;;-10.84;100.00
26915;BME280;14480;52.608;13.416;2023-02-10T10:27:05;141383.19;;;-10.69;100.00
26915;BME280;14480;52.608;13.416;2023-02-10T10:32:23;141438.66;;;-10.46;100.00
26915;BME280;14480;52.608;13.416;2023-02-10T10:37:31;141446.03;;;-10.43;100.00
26915;BME280;14480;52.608;13.416;2023-02-10T10:42:39;141478.13;;;-10.30;100.00
26915;BME280;14480;52.608;13.416;2023-02-10T10:47:46;141550.81;;;-10.00;100.00
26915;BME280;14480;52.608;13.416;2023-02-10T10:52:51;141550.81;;;-10.00;100.00
26915;BME280;14480;52.608;13.416;2023-02-10T10:57:55;141581.63;;;-9.87;100.00
26915;BME280;14480;52.608;13.416;2023-02-10T11:03:01;141605.06;;;-9.78;100.00
26915;BME280;14480;52.608;13.416;2023-02-10T11:08:06;141648.25;;;-9.60;100.00
26915;BME280;14480;52.608;13.416;2023-02-10T11:13:16;141700.03;;;-9.38;100.00
26915;BME280;14480;52.608;13.416;2023-02-10T11:18:24;141693.88;;;-9.41;100.00
26915;BME280;14480;52.608;13.416;2023-02-10T11:23:28;141675.41;;;-9.49;100.00
26915;BME280;14480;52.608;13.416;2023-02-10T11:28:34;141664.25;;;-9.53;100.00
26915;BME280;14480;52.608;13.416;2023-02-10T11:33:43;141630.97;;;-9.67;100.00
26915;BME280;14480;52.608;13.416;2023-02-10T11:38:58;141621.13;;;-9.71;100.00
26915;BME280;14480;52.608;13.416;2023-02-10T11:44:02;141574.22;;;-9.90;100.00
26915;BME280;14480;52.608;13.416;2023-02-10T11:49:17;141544.63;;;-10.03;100.00
26915;BME280;14480;52.608;13.416;2023-02-10T11:54:22;141346.25;;;-10.84;100.00
26915;BME280;14480;52.608;13.416;2023-02-10T11:59:27;141534.78;;;-10.07;100.00
26915;BME280;14480;52.608;13.416;2023-02-10T12:04:38;141596.44;;;-9.81;100.00
26915;BME280;14480;52.608;13.416;2023-02-10T12:09:48;141617.38;;;-9.73;100.00
26915;BME280;14480;52.608;13.416;2023-02-10T12:14:57;141587.78;;;-9.85;100.00
26915;BME280;14480;52.608;13.416;2023-02-10T12:20:28;141630.97;;;-9.67;100.00
26915;BME280;14480;52.608;13.416;2023-02-10T12:25:37;141667.97;;;-9.52;100.00
26915;BME280;14480;52.608;13.416;2023-02-10T12:30:45;141701.25;;;-9.38;100.00
26915;BME280;14480;52.608;13.416;2023-02-10T12:35:53;141692.63;;;-9.42;100.00
26915;BME280;14480;52.608;13.416;2023-02-10T12:41:01;141732.16;;;-9.25;100.00
26915;BME280;14480;52.608;13.416;2023-02-10T12:46:12;141758.03;;;-9.15;100.00
26915;BME280;14480;52.608;13.416;2023-02-10T12:51:38;141811.09;;;-8.93;100.00
26915;BME280;14480;52.608;13.416;2023-02-10T12:56:46;141781.47;;;-9.05;100.00
26915;BME280;14480;52.608;13.416;2023-02-10T13:01:54;141781.47;;;-9.05;100.00
26915;BME280;14480;52.608;13.416;2023-02-10T13:07:04;141732.16;;;-9.25;100.00
26915;BME280;14480;52.608;13.416;2023-02-10T13:12:13;141745.69;;;-9.20;100.00
26915;BME280;14480;52.608;13.416;2023-02-10T13:17:18;141746.94;;;-9.19;100.00
26915;BME280;14480;52.608;13.416;2023-02-10T13:22:26;141738.31;;;-9.23;100.00
26915;BME280;14480;52.608;13.416;2023-02-10T13:27:43;141708.69;;;-9.35;100.00
26915;BME280;14480;52.608;13.416;2023-02-10T13:32:55;141664.25;;;-9.53;100.00
26915;BME280;14480;52.608;13.416;2023-02-10T13:38:08;141676.63;;;-9.48;100.00
26915;BME280;14480;52.608;13.416;2023-02-10T13:43:17;141643.28;;;-9.62;100.00
26915;BME280;14480;52.608;13.416;2023-02-10T13:48:26;141665.50;;;-9.53;100.00
26915;BME280;14480;52.608;13.416;2023-02-10T13:53:39;141655.63;;;-9.57;100.00
26915;BME280;14480;52.608;13.416;2023-02-10T13:58:47;141638.34;;;-9.64;100.00
26915;BME280;14480;52.608;13.416;2023-02-10T14:03:54;141648.25;;;-9.60;100.00
26915;BME280;14480;52.608;13.416;2023-02-10T14:09:02;141680.31;;;-9.47;100.00
26915;BME280;14480;52.608;13.416;2023-02-10T14:14:16;141698.78;;;-9.39;100.00
26915;BME280;14480;52.608;13.416;2023-02-10T14:19:22;141692.63;;;-9.42;100.00
26915;BME280;14480;52.608;13.416;2023-02-10T14:24:29;141681.56;;;-9.46;100.00
26915;BME280;14480;52.608;13.416;2023-02-10T14:29:51;141677.84;;;-9.48;100.00
26915;BME280;14480;52.608;13.416;2023-02-10T14:34:56;141664.25;;;-9.53;100.00
26915;BME280;14480;52.608;13.416;2023-02-10T14:40:02;141656.88;;;-9.56;100.00
26915;BME280;14480;52.608;13.416;2023-02-10T14:45:16;141648.25;;;-9.60;100.00
26915;BME280;14480;52.608;13.416;2023-02-10T14:50:22;141681.56;;;-9.46;100.00
26915;BME280;14480;52.608;13.416;2023-02-10T14:55:29;141687.72;;;-9.44;100.00
26915;BME280;14480;52.608;13.416;2023-02-10T15:00:35;141589.00;;;-9.84;100.00
26915;BME280;14480;52.608;13.416;2023-02-10T15:05:43;141564.38;;;-9.94;100.00
26915;BME280;14480;52.608;13.416;2023-02-10T15:10:51;141533.53;;;-10.07;100.00
26915;BME280;14480;52.608;13.416;2023-02-10T15:15:56;141458.41;;;-10.38;100.00
26915;BME280;14480;52.608;13.416;2023-02-10T15:21:02;141425.13;;;-10.52;100.00
26915;BME280;14480;52.608;13.416;2023-02-10T15:26:15;141394.31;;;-10.65;100.00
26915;BME280;14480;52.608;13.416;2023-02-10T15:31:23;141337.63;;;-10.88;100.00
26915;BME280;14480;52.608;13.416;2023-02-10T15:36:29;141327.75;;;-10.92;100.00
26915;BME280;14480;52.608;13.416;2023-02-10T15:41:35;141273.53;;;-11.14;100.00
26915;BME280;14480;52.608;13.416;2023-02-10T15:46:39;141261.25;;;-11.20;100.00
26915;BME280;14480;52.608;13.416;2023-02-10T15:51:44;141272.31;;;-11.15;100.00
26915;BME280;14480;52.608;13.416;2023-02-10T15:56:57;141315.44;;;-10.97;100.00
26915;BME280;14480;52.608;13.416;2023-02-10T16:02:04;141293.28;;;-11.06;100.00
26915;BME280;14480;52.608;13.416;2023-02-10T16:07:11;141293.28;;;-11.06;100.00
26915;BME280;14480;52.608;13.416;2023-02-10T16:12:18;141308.03;;;-11.00;100.00
26915;BME280;14480;52.608;13.416;2023-02-10T16:17:22;141284.66;;;-11.10;100.00
26915;BME280;14480;52.608;13.416;2023-02-10T16:22:27;141245.22;;;-11.26;100.00
26915;BME280;14480;52.608;13.416;2023-02-10T16:27:33;141204.59;;;-11.43;100.00
26915;BME280;14480;52.608;13.416;2023-02-10T16:32:37;141152.88;;;-11.64;100.00
26915;BME280;14480;52.608;13.416;2023-02-10T16:37:40;141112.28;;;-11.81;100.00
26915;BME280;14480;52.608;13.416;2023-02-10T16:42:45;141051.97;;;-12.06;100.00
26915;BME280;14480;52.608;13.416;2023-02-10T16:47:49;141021.22;;;-12.19;100.00
26915;BME280;14480;52.608;13.416;2023-02-10T16:52:53;141028.56;;;-12.16;100.00
26915;BME280;14480;52.608;13.416;2023-02-10T16:57:58;141010.16;;;-12.23;100.00
26915;BME280;14480;52.608;13.416;2023-02-10T17:03:01;141004.00;;;-12.26;100.00
26915;BME280;14480;52.608;13.416;2023-02-10T17:08:05;141018.75;;;-12.20;100.00
26915;BME280;14480;52.608;13.416;2023-02-10T17:13:11;141006.47;;;-12.25;100.00
26915;BME280;14480;52.608;13.416;2023-02-10T17:18:17;141027.34;;;-12.16;100.00
26915;BME280;14480;52.608;13.416;2023-02-10T17:23:20;141048.28;;;-12.08;100.00
26915;BME280;14480;52.608;13.416;2023-02-10T17:28:25;141045.81;;;-12.09;100.00
26915;BME280;14480;52.608;13.416;2023-02-10T17:33:31;141066.75;;;-12.00;100.00
26915;BME280;14480;52.608;13.416;2023-02-10T17:38:34;141068.00;;;-11.99;100.00
26915;BME280;14480;52.608;13.416;2023-02-10T17:43:54;141054.44;;;-12.05;100.00
26915;BME280;14480;52.608;13.416;2023-02-10T17:49:01;141054.44;;;-12.05;100.00
26915;BME280;14480;52.608;13.416;2023-02-10T17:54:05;141074.13;;;-11.97;100.00
26915;BME280;14480;52.608;13.416;2023-02-10T17:59:13;141097.53;;;-11.87;100.00
26915;BME280;14480;52.608;13.416;2023-02-10T18:04:16;141068.00;;;-11.99;100.00
26915;BME280;14480;52.608;13.416;2023-02-10T18:09:20;141066.75;;;-12.00;100.00
26915;BME280;14480;52.608;13.416;2023-02-10T18:14:25;141043.38;;;-12.10;100.00
26915;BME280;14480;52.608;13.416;2023-02-10T18:19:29;141072.91;;;-11.97;100.00
26915;BME280;14480;52.608;13.416;2023-02-10T18:24:33;141071.69;;;-11.98;100.00
26915;BME280;14480;52.608;13.416;2023-02-10T18:35:07;141059.38;;;-12.03;100.00
26915;BME280;14480;52.608;13.416;2023-02-10T18:40:11;141010.16;;;-12.23;100.00
26915;BME280;14480;52.608;13.416;2023-02-10T18:45:21;140990.44;;;-12.31;100.00
26915;BME280;14480;52.608;13.416;2023-02-10T18:50:27;140994.13;;;-12.30;100.00
26915;BME280;14480;52.608;13.416;2023-02-10T18:55:34;140971.97;;;-12.39;100.00
26915;BME280;14480;52.608;13.416;2023-02-10T19:00:40;140969.53;;;-12.40;100.00
26915;BME280;14480;52.608;13.416;2023-02-10T19:05:46;140959.69;;;-12.44;100.00
26915;BME280;14480;52.608;13.416;2023-02-10T19:10:51;140951.09;;;-12.48;100.00
26915;BME280;14480;52.608;13.416;2023-02-10T19:15:57;140951.09;;;-12.48;100.00
26915;BME280;14480;52.608;13.416;2023-02-10T19:21:03;140959.69;;;-12.44;100.00
26915;BME280;14480;52.608;13.416;2023-02-10T19:26:12;140967.06;;;-12.41;100.00
26915;BME280;14480;52.608;13.416;2023-02-10T19:31:16;140970.75;;;-12.40;100.00
26915;BME280;14480;52.608;13.416;2023-02-10T19:36:21;140986.78;;;-12.33;100.00
26915;BME280;14480;52.608;13.416;2023-02-10T19:41:25;140997.81;;;-12.28;100.00
26915;BME280;14480;52.608;13.416;2023-02-10T19:46:28;140999.06;;;-12.28;100.00
26915;BME280;14480;52.608;13.416;2023-02-10T19:51:34;140976.94;;;-12.37;100.00
26915;BME280;14480;52.608;13.416;2023-02-10T19:56:37;140969.53;;;-12.40;100.00
26915;BME280;14480;52.608;13.416;2023-02-10T20:01:41;140951.09;;;-12.48;100.00
26915;BME280;14480;52.608;13.416;2023-02-10T20:06:47;140940.00;;;-12.52;100.00
26915;BME280;14480;52.608;13.416;2023-02-10T20:11:51;140947.41;;;-12.49;100.00
26915;BME280;14480;52.608;13.416;2023-02-10T20:16:55;140911.72;;;-12.64;100.00
26915;BME280;14480;52.608;13.416;2023-02-10T20:22:01;140910.47;;;-12.64;100.00
26915;BME280;14480;52.608;13.416;2023-02-10T20:27:05;140877.28;;;-12.78;100.00
26915;BME280;14480;52.608;13.416;2023-02-10T20:32:08;140850.22;;;-12.89;100.00
26915;BME280;14480;52.608;13.416;2023-02-10T20:37:20;140837.97;;;-12.94;100.00
26915;BME280;14480;52.608;13.416;2023-02-10T20:42:24;140831.78;;;-12.97;100.00
26915;BME280;14480;52.608;13.416;2023-02-10T20:47:27;140808.44;;;-13.07;100.00
26915;BME280;14480;52.608;13.416;2023-02-10T20:52:33;140761.75;;;-13.26;100.00
26915;BME280;14480;52.608;13.416;2023-02-10T20:57:38;140747.00;;;-13.32;100.00
26915;BME280;14480;52.608;13.416;2023-02-10T21:02:42;140780.22;;;-13.18;100.00
26915;BME280;14480;52.608;13.416;2023-02-10T21:07:50;140779.00;;;-13.19;100.00
26915;BME280;14480;52.608;13.416;2023-02-10T21:12:54;140774.03;;;-13.21;100.00
26915;BME280;14480;52.608;13.416;2023-02-10T21:18:00;140786.31;;;-13.16;100.00
26915;BME280;14480;52.608;13.416;2023-02-10T21:23:06;140810.91;;;-13.06;100.00
26915;BME280;14480;52.608;13.416;2023-02-10T21:28:10;140825.63;;;-13.00;100.00
26915;BME280;14480;52.608;13.416;2023-02-10T21:33:31;140810.91;;;-13.06;100.00
26915;BME280;14480;52.608;13.416;2023-02-10T21:38:36;140804.72;;;-13.08;100.00
26915;BME280;14480;52.608;13.416;2023-02-10T21:43:39;140779.00;;;-13.19;100.00
26915;BME280;14480;52.608;13.416;2023-02-10T21:48:43;140782.63;;;-13.17;100.00
26915;BME280;14480;52.608;13.416;2023-02-10T21:53:51;140804.72;;;-13.08;100.00
26915;BME280;14480;52.608;13.416;2023-02-10T21:58:58;140774.03;;;-13.21;100.00
26915;BME280;14480;52.608;13.416;2023-02-10T22:04:03;140744.53;;;-13.33;100.00
26915;BME280;14480;52.608;13.416;2023-02-10T22:09:12;140769.13;;;-13.23;100.00
26915;BME280;14480;52.608;13.416;2023-02-10T22:14:16;140760.53;;;-13.27;100.00
26915;BME280;14480;52.608;13.416;2023-02-10T22:19:21;140758.06;;;-13.28;100.00
26915;BME280;14480;52.608;13.416;2023-02-10T22:24:26;140715.03;;;-13.45;100.00
26915;BME280;14480;52.608;13.416;2023-02-10T22:29:31;140719.94;;;-13.43;100.00
26915;BME280;14480;52.608;13.416;2023-02-10T22:34:37;140734.72;;;-13.37;100.00
26915;BME280;14480;52.608;13.416;2023-02-10T22:39:42;140718.72;;;-13.44;100.00
26915;BME280;14480;52.608;13.416;2023-02-10T22:44:45;140707.69;;;-13.48;100.00
26915;BME280;14480;52.608;13.416;2023-02-10T22:49:51;140727.34;;;-13.40;100.00
26915;BME280;14480;52.608;13.416;2023-02-10T22:54:59;140738.41;;;-13.36;100.00
